createdAt,value
2022-08-02T00:01:19.606Z,41.20
2022-08-02T00:04:44.321Z,41.30
2022-08-02T00:07:50.957Z,41.30
2022-08-02T00:11:55.373Z,40.40
2022-08-02T00:19:19.218Z,41.60
2022-08-02T00:40:40.016Z,43.40
2022-08-02T00:42:27.452Z,42.20
2022-08-02T00:48:58.851Z,43.80
2022-08-02T00:52:45.169Z,43.50
2022-08-02T01:00:48.712Z,45.20
2022-08-02T01:07:24.784Z,46.60
2022-08-02T01:11:12.496Z,46.30
2022-08-02T01:19:31.239Z,45.30
2022-08-02T01:32:50.942Z,45.10
2022-08-02T01:37:13.039Z,44.40
2022-08-02T01:51:20.784Z,44.00
2022-08-02T01:55:58.396Z,43.90
2022-08-02T02:21:41.935Z,45.10
2022-08-02T02:24:58.546Z,45.50
2022-08-02T02:31:27.134Z,46.00
2022-08-02T02:35:33.465Z,46.00
2022-08-02T02:39:37.042Z,46.10
2022-08-02T03:19:10.009Z,46.10
2022-08-02T03:22:08.188Z,46.70
2022-08-02T03:29:32.722Z,47.20
2022-08-02T03:32:58.390Z,47.00
2022-08-02T03:40:49.298Z,47.30
2022-08-02T03:48:58.937Z,48.00
2022-08-02T03:52:22.130Z,47.00
2022-08-02T03:55:37.095Z,49.00
2022-08-02T03:59:14.207Z,48.50
2022-08-02T04:02:14.048Z,49.00
2022-08-02T04:10:10.667Z,48.90
2022-08-02T04:13:48.460Z,49.10
2022-08-02T04:17:17.433Z,48.20
2022-08-02T04:19:58.702Z,49.30
2022-08-02T04:22:39.653Z,49.90
2022-08-02T04:25:10.231Z,50.00
2022-08-02T04:27:51.016Z,49.70
2022-08-02T04:30:38.908Z,49.20
2022-08-02T04:33:08.536Z,49.30
2022-08-02T04:35:37.356Z,49.20
2022-08-02T04:38:11.597Z,49.90
2022-08-02T04:40:40.816Z,50.70
2022-08-02T04:43:09.519Z,51.20
2022-08-02T04:45:39.833Z,51.70
2022-08-02T04:48:11.458Z,51.60
2022-08-02T04:50:45.364Z,51.00
2022-08-02T04:53:19.978Z,50.50
2022-08-02T04:56:04.345Z,51.20
2022-08-02T04:58:46.204Z,51.20
2022-08-02T05:01:30.946Z,51.00
2022-08-02T05:04:36.120Z,50.60
2022-08-02T05:07:22.807Z,49.80
2022-08-02T05:10:08.206Z,49.80
2022-08-02T05:13:01.835Z,49.90
2022-08-02T05:15:52.177Z,50.20
2022-08-02T05:18:33.771Z,50.00
2022-08-02T05:21:09.866Z,50.00
2022-08-02T05:23:59.711Z,49.70
2022-08-02T05:26:42.544Z,49.20
2022-08-02T05:29:25.767Z,48.70
2022-08-02T05:32:14.211Z,48.10
2022-08-02T05:35:13.670Z,47.70
2022-08-02T05:38:41.623Z,47.50
2022-08-02T05:41:26.913Z,47.40
2022-08-02T05:44:32.576Z,46.60
2022-08-02T05:52:05.479Z,45.90
2022-08-02T05:56:28.005Z,45.20
2022-08-02T06:00:28.383Z,45.20
2022-08-02T06:04:10.951Z,45.20
2022-08-02T06:16:31.757Z,43.30
2022-08-02T06:19:15.885Z,43.90
2022-08-02T06:22:32.820Z,44.30
2022-08-02T06:25:48.472Z,43.60
2022-08-02T06:31:37.491Z,44.30
2022-08-02T06:34:18.085Z,43.60
2022-08-02T06:38:03.853Z,42.90
2022-08-02T06:41:09.154Z,43.80
2022-08-02T06:44:49.564Z,43.30
2022-08-02T06:47:54.596Z,43.20
2022-08-02T06:51:20.725Z,42.50
2022-08-02T06:57:51.630Z,42.90
2022-08-02T07:00:49.878Z,42.50
2022-08-02T07:07:51.474Z,41.70
2022-08-02T07:10:19.661Z,39.10
2022-08-02T07:12:49.281Z,39.50
2022-08-02T07:15:17.422Z,39.50
2022-08-02T07:17:45.710Z,40.40
2022-08-02T07:20:15.108Z,40.50
2022-08-02T07:22:43.332Z,40.60
2022-08-02T07:25:11.634Z,40.40
2022-08-02T07:27:39.936Z,40.60
2022-08-02T07:30:11.148Z,38.60
2022-08-02T07:32:39.837Z,39.80
2022-08-02T07:35:09.271Z,38.80
2022-08-02T07:37:54.830Z,38.00
2022-08-02T07:40:28.287Z,36.50
2022-08-02T07:43:03.406Z,37.40
2022-08-02T07:45:36.080Z,36.40
2022-08-02T07:48:05.976Z,35.10
2022-08-02T07:50:37.221Z,35.30
2022-08-02T07:53:05.495Z,33.10
2022-08-02T07:55:39.866Z,33.30
2022-08-02T07:58:12.578Z,32.40
2022-08-02T08:00:43.542Z,31.70
2022-08-02T08:03:11.989Z,31.60
2022-08-02T08:05:40.752Z,31.60
2022-08-02T08:08:12.384Z,31.30
2022-08-02T08:10:45.144Z,32.30
2022-08-02T08:13:13.363Z,29.90
2022-08-02T08:15:52.499Z,30.80
2022-08-02T08:18:21.505Z,29.90
2022-08-02T08:20:49.770Z,30.70
2022-08-02T08:23:17.977Z,29.60
2022-08-02T08:25:46.704Z,30.70
2022-08-02T08:28:14.813Z,30.90
2022-08-02T08:30:44.477Z,32.10
2022-08-02T08:33:13.197Z,31.10
2022-08-02T08:35:41.518Z,29.70
2022-08-02T08:38:09.866Z,30.20
2022-08-02T08:40:38.664Z,30.00
2022-08-02T08:43:06.986Z,29.90
2022-08-02T14:12:44.713Z,15.10
2022-08-02T16:27:02.632Z,13.90
2022-08-02T16:55:39.328Z,14.60
2022-08-02T16:58:40.218Z,13.40
2022-08-02T17:02:11.303Z,14.20
2022-08-02T17:04:24.930Z,13.40
2022-08-02T17:08:17.334Z,14.50
2022-08-02T17:19:54.727Z,13.00
2022-08-02T17:27:15.854Z,18.40
2022-08-02T21:01:02.186Z,33.60
2022-08-02T21:03:41.265Z,33.60
2022-08-02T21:06:17.287Z,33.60
2022-08-02T21:08:49.150Z,33.50
2022-08-02T21:11:33.471Z,33.70
2022-08-02T21:14:27.467Z,33.30
2022-08-02T21:17:11.746Z,33.80
2022-08-02T21:19:55.999Z,32.60
2022-08-02T21:22:44.720Z,33.20
2022-08-02T21:43:15.106Z,34.00
2022-08-02T21:46:07.348Z,33.10
2022-08-02T21:48:53.573Z,34.00
2022-08-02T22:01:52.429Z,33.30
2022-08-02T22:04:47.902Z,33.70
2022-08-02T22:07:30.209Z,33.20
2022-08-02T22:10:20.067Z,35.10
2022-08-02T22:13:47.793Z,35.70
2022-08-02T22:17:17.282Z,36.00
2022-08-02T22:20:45.945Z,35.90
2022-08-02T22:23:51.175Z,35.00
2022-08-02T22:27:01.164Z,35.50
2022-08-02T22:29:48.254Z,35.20
2022-08-02T22:32:44.973Z,34.70
2022-08-02T22:36:17.240Z,35.60
2022-08-02T22:39:19.568Z,35.80
2022-08-02T22:42:20.517Z,35.80
2022-08-02T22:44:55.026Z,35.90
2022-08-02T22:47:28.036Z,36.30
2022-08-02T22:49:59.416Z,35.50
2022-08-02T22:52:39.026Z,36.40
2022-08-02T22:55:08.739Z,36.80
2022-08-02T22:57:50.590Z,36.80
2022-08-02T23:00:27.654Z,37.00
2022-08-02T23:03:01.146Z,37.60
2022-08-02T23:05:37.392Z,37.70
2022-08-02T23:08:11.138Z,38.10
2022-08-02T23:10:39.640Z,38.60
2022-08-02T23:13:10.203Z,38.20
2022-08-02T23:16:01.754Z,38.60
2022-08-02T23:18:47.795Z,38.70
2022-08-02T23:22:01.877Z,38.20
2022-08-02T23:27:49.901Z,38.60
2022-08-02T23:30:23.080Z,38.60
2022-08-02T23:41:19.460Z,38.50
2022-08-02T23:48:29.411Z,38.60
2022-08-02T23:51:11.438Z,38.30
2022-08-02T23:54:00.212Z,38.20
2022-08-02T23:56:41.378Z,38.90
2022-08-02T23:59:18.360Z,38.80
